Webcam Meteoipassi more information Webcam Meteoipassi


altri nostri siti meteo:

Pomeziameteo 1Sito sul meteo

MeteopomeziaSito sul meteo

Pomeziameteo DashboardSito sul meteo

Caput FrigorisSito sul meteo

BarcellonameteoSito sul meteo

ViterbometeoSito sul meteo

MeteotortoretoSito sul meteo

TortoretometeolidoSito sul meteo

MeteoGonzagaSito sul meteo



No particular awareness of the weather is required.    There are no Weather-warnings

Notice: Undefined offset: 6 in /web/htdocs/www.meteoipassi.it/home/weather28/metar/metarDisplay.php on line 75

Notice: Undefined offset: 5 in /web/htdocs/www.meteoipassi.it/home/weather28/metar/metarDisplay.php on line 75

Report METAR

   
LIRQ - Firenze
Dati ricevuti: Sep 29 2022 6:50 pm
Parzialmente nuvoloso  
Parzialmente nuvoloso  
   Vento: Variabile 3.7 km/h
Vento: Variabile 3.7 km/h
Temperatura: 19°C
P.to Rugiada: 14°C
Umidita: 73%
Barometro: 1001 hPa
Nuvole: Parzialmente nuvoloso
Visibilita: oltre 10 km
dettagli cloud: Poche nuvole 1219.2 m,
Parzialmente nuvoloso 2438.4 m
LIRQ 291650Z VRB02KT 9999 FEW040 SCT080 19/14 Q1001
LIRP - Lucca
Dati ricevuti: Sep 29 2022 6:45 pm
Parzialmente nuvoloso  
Parzialmente nuvoloso  
   Vento: West 16.7 km/h
Vento: West 16.7 km/h
Temperatura: 19°C
P.to Rugiada: 13°C
Umidita: 68%
Barometro: 1000 hPa
Nuvole: Parzialmente nuvoloso
Visibilita: oltre 10 km
dettagli cloud: Poche nuvole 914.4 m,
Parzialmente nuvoloso 2438.4 m
LIRP 291645Z 28009KT 9999 FEW030 SCT080 19/13 Q1000 NOSIG
LIPE - Bologna
Dati ricevuti: Sep 29 2022 6:50 pm
Poche nuvole  
Poche nuvole  
   Vento: Sud 9.3 km/h
Vento: Sud 9.3 km/h
Temperatura: 21°C
P.to Rugiada: 9°C
Umidita: 46%
Barometro: 999 hPa
Nuvole: Poche nuvole
Visibilita: oltre 10 km
dettagli cloud: Poche nuvole 2133.6 m
LIPE 291650Z 19005KT 9999 FEW070 21/09 Q0999
LIMP - Parma
Dati ricevuti: Sep 29 2022 6:50 pm
Parzialmente nuvoloso  
Parzialmente nuvoloso  
   Vento: Sud 13 km/h
Vento: Sud 13 km/h
Temperatura: 20°C
P.to Rugiada: 8°C
Umidita: 46%
Barometro: 998 hPa
Nuvole: Parzialmente nuvoloso
Visibilita: oltre 10 km
dettagli cloud: Parzialmente nuvoloso 1219.2 m
LIMP 291650Z 19007KT 9999 SCT040 20/08 Q0998
  

Script sviluppato da  Saratoga-weather.org Adattato per il modello da  Weerstation Leuven

Potete trovare le nostre info meteo anche a:

European Weather Network

Weather Underground

AWEKAS

HAMweather, WeatherForYou, PWS Weather

Strumentazione usata:

Stazione meteo
Davis Vantage Vue

Programma gestore dati meteo
WVIEW

Server per i dati meteo
WDS-5

Provider
Anemos WDS-5

Davis Vantage Vue

WVIEW

WDS-5

Anemos WDS-5